Time;durP1;ratioP1;P1;durP2;ratioP2;P2;SDS_P1;SDS_P2;PMS_P1;PMS_P2;Temp;Humidity;BMP_temperature;BMP_pressure;BME280_temperature;BME280_humidity;BME280_pressure;Samples;Min_cycle;Max_cycle;Signal;HPM_P1;HPM_P2
2022/07/30 00:01:08;;;;;;;2.75;1.95;;;;;;;17.34;71.77;101164.80;1658310;86;20849;-84
2022/07/30 00:05:02;;;;;;;3.85;2.17;;;;;;;17.32;71.56;101173.35;1884258;75;22468;-87
2022/07/30 00:07:29;;;;;;;7.05;2.02;;;;;;;17.24;71.64;101173.11;1830343;76;20921;-87
2022/07/30 00:09:57;;;;;;;2.22;1.35;;;;;;;17.21;71.86;101173.36;1861107;76;20872;-87
2022/07/30 00:12:25;;;;;;;4.85;2.05;;;;;;;17.16;72.25;101172.86;1858070;76;20915;-87
2022/07/30 00:14:54;;;;;;;3.95;1.90;;;;;;;17.10;72.82;101171.56;1861152;77;21009;-87
2022/07/30 00:17:22;;;;;;;6.17;2.20;;;;;;;17.05;73.11;101170.22;1862128;76;21360;-86
2022/07/30 00:19:49;;;;;;;4.30;1.80;;;;;;;17.02;73.25;101175.77;1863783;77;20867;-85
2022/07/30 00:22:16;;;;;;;5.97;1.75;;;;;;;16.94;73.15;101167.08;1861507;77;21255;-87
2022/07/30 00:24:43;;;;;;;1.95;1.40;;;;;;;16.90;73.18;101173.61;1861075;77;20903;-86
2022/07/30 00:27:10;;;;;;;2.17;1.60;;;;;;;16.87;73.29;101169.36;1861242;76;20950;-86
2022/07/30 00:29:37;;;;;;;7.90;1.62;;;;;;;16.85;73.34;101167.34;1861053;76;22145;-86
2022/07/30 00:32:04;;;;;;;3.95;1.60;;;;;;;16.84;73.54;101162.99;1861091;77;20891;-87
2022/07/30 00:34:30;;;;;;;3.30;2.70;;;;;;;16.83;73.56;101163.10;1860929;77;21196;-85
2022/07/30 00:36:58;;;;;;;5.65;1.70;;;;;;;16.84;73.67;101166.13;1861029;76;21404;-87
2022/07/30 00:39:28;;;;;;;2.83;1.90;;;;;;;16.83;73.66;101161.32;1861012;77;20966;-84
2022/07/30 00:41:59;;;;;;;4.90;1.60;;;;;;;16.82;73.67;101156.97;1860938;76;20942;-86
2022/07/30 00:44:26;;;;;;;3.98;1.80;;;;;;;16.81;73.37;101154.42;1861246;77;20898;-85
2022/07/30 00:46:54;;;;;;;4.33;2.12;;;;;;;16.77;73.19;101158.62;1860913;77;21191;-86
2022/07/30 00:49:21;;;;;;;3.50;2.35;;;;;;;16.73;73.11;101153.19;1860887;77;20855;-87
2022/07/30 00:51:49;;;;;;;3.05;1.95;;;;;;;16.71;72.98;101148.98;1860999;76;21325;-86
2022/07/30 00:54:17;;;;;;;4.28;1.85;;;;;;;16.68;73.04;101149.23;1860872;77;20868;-86
2022/07/30 00:56:44;;;;;;;4.75;2.00;;;;;;;16.67;73.28;101143.06;1862026;76;20891;-87
2022/07/30 00:59:10;;;;;;;4.78;2.02;;;;;;;16.66;73.54;101149.34;1861091;77;21109;-85
2022/07/30 01:01:37;;;;;;;4.03;1.98;;;;;;;16.65;73.52;101145.48;1861078;77;20864;-86
2022/07/30 01:04:07;;;;;;;6.58;1.87;;;;;;;16.61;73.49;101140.91;1861137;77;21017;-89
2022/07/30 01:06:33;;;;;;;4.95;2.37;;;;;;;16.56;73.36;101147.89;1861167;76;20879;-85
2022/07/30 01:08:59;;;;;;;3.35;1.90;;;;;;;16.50;73.45;101147.52;1861322;77;20864;-86
2022/07/30 01:11:31;;;;;;;2.20;2.05;;;;;;;16.45;73.71;101150.97;1860896;76;21120;-88
2022/07/30 01:13:58;;;;;;;4.92;1.90;;;;;;;16.38;74.16;101150.59;1861474;76;20907;-85
2022/07/30 01:16:26;;;;;;;3.55;1.65;;;;;;;16.33;74.38;101157.56;1863499;77;20903;-84
2022/07/30 01:21:40;;;;;;;3.40;1.82;;;;;;;16.25;74.84;101148.52;1860589;76;20903;-87
2022/07/30 01:24:27;;;;;;;3.35;1.90;;;;;;;16.22;75.13;101152.73;1860546;77;21231;-87
2022/07/30 01:26:54;;;;;;;6.40;2.20;;;;;;;16.18;75.45;101152.10;1818185;76;20993;-86
2022/07/30 01:29:23;;;;;;;5.47;2.12;;;;;;;16.12;75.72;101154.75;1822950;78;21046;-87
2022/07/30 01:31:54;;;;;;;2.12;1.92;;;;;;;16.09;75.81;101154.95;1796609;78;20991;-87
2022/07/30 01:34:20;;;;;;;5.70;2.15;;;;;;;16.07;75.83;101154.23;1822932;78;20887;-86
2022/07/30 01:36:47;;;;;;;5.58;2.10;;;;;;;16.06;75.81;101149.07;1822997;78;21182;-86
2022/07/30 01:39:13;;;;;;;5.17;1.85;;;;;;;16.06;75.74;101150.39;1822921;78;21719;-86
2022/07/30 01:41:40;;;;;;;7.30;2.47;;;;;;;16.05;75.66;101150.88;1823054;78;21476;-88
2022/07/30 01:44:07;;;;;;;4.47;1.90;;;;;;;16.03;75.57;101150.15;1823009;78;20951;-86
2022/07/30 01:46:35;;;;;;;6.53;2.27;;;;;;;16.04;75.70;101149.66;1823336;78;20966;-86
2022/07/30 01:49:02;;;;;;;8.88;2.15;;;;;;;16.04;75.65;101153.14;1823168;78;21229;-85
2022/07/30 01:51:32;;;;;;;3.87;2.12;;;;;;;16.05;75.62;101151.34;1822883;78;21381;-84
2022/07/30 01:53:59;;;;;;;4.87;2.08;;;;;;;16.05;75.72;101159.27;1823005;78;20903;-86
2022/07/30 01:56:25;;;;;;;6.70;3.20;;;;;;;16.04;75.74;101154.95;1823021;78;21419;-85
2022/07/30 01:58:53;;;;;;;8.03;2.50;;;;;;;16.03;75.42;101163.38;1823781;78;20884;-86
2022/07/30 02:01:23;;;;;;;6.53;2.42;;;;;;;16.01;75.41;101157.81;1857020;76;20820;-84
2022/07/30 02:03:52;;;;;;;5.65;2.30;;;;;;;15.99;75.34;101161.91;1856938;77;20862;-86
2022/07/30 02:06:22;;;;;;;5.47;2.45;;;;;;;15.99;75.44;101166.37;1849551;77;21348;-84
2022/07/30 02:08:54;;;;;;;5.95;2.83;;;;;;;15.97;75.46;101158.53;1823478;77;20923;-84
2022/07/30 02:14:21;;;;;;;5.22;2.40;;;;;;;15.92;75.64;101159.36;1852157;77;20865;-84
2022/07/30 02:17:00;;;;;;;5.65;2.83;;;;;;;15.90;75.75;101160.78;1850243;76;20889;-85
2022/07/30 02:19:32;;;;;;;6.53;2.77;;;;;;;15.88;75.85;101164.51;1849835;76;20921;-85
2022/07/30 02:22:08;;;;;;;6.40;2.70;;;;;;;15.86;75.75;101164.61;1849698;76;21320;-86
2022/07/30 02:24:37;;;;;;;3.75;1.80;;;;;;;15.86;75.71;101158.48;1849598;77;20925;-87
2022/07/30 02:27:15;;;;;;;5.58;2.52;;;;;;;15.82;75.67;101156.53;1849787;77;21146;-86
2022/07/30 02:29:43;;;;;;;4.55;2.15;;;;;;;15.81;75.62;101157.95;1829734;77;20877;-87
2022/07/30 02:32:14;;;;;;;9.63;2.67;;;;;;;15.80;75.61;101162.41;1849791;77;20865;-86
2022/07/30 02:34:41;;;;;;;6.17;2.45;;;;;;;15.77;75.70;101162.64;1849829;77;20846;-85
2022/07/30 02:37:10;;;;;;;3.45;2.70;;;;;;;15.74;75.80;101169.01;1849822;77;20952;-87
2022/07/30 02:39:38;;;;;;;7.67;3.08;;;;;;;15.74;75.84;101168.17;1849869;77;21091;-84
2022/07/30 02:42:06;;;;;;;5.22;3.12;;;;;;;15.73;76.02;101172.59;1849500;77;20976;-87
2022/07/30 02:44:33;;;;;;;4.15;2.45;;;;;;;15.73;76.08;101171.75;1849430;77;21409;-87
2022/07/30 02:47:00;;;;;;;6.37;3.55;;;;;;;15.72;76.22;101170.92;1849609;77;20917;-85
2022/07/30 02:49:30;;;;;;;8.93;3.35;;;;;;;15.73;76.19;101173.08;1850230;77;20830;-89
2022/07/30 02:51:57;;;;;;;7.87;3.60;;;;;;;15.73;76.50;101169.11;1850204;76;21218;-87
2022/07/30 02:54:24;;;;;;;17.60;4.22;;;;;;;15.72;76.25;101169.59;1849722;76;21390;-87
2022/07/30 02:56:51;;;;;;;7.17;3.02;;;;;;;15.73;76.25;101174.40;1849997;76;20889;-87
2022/07/30 02:59:19;;;;;;;6.75;2.92;;;;;;;15.74;76.26;101174.30;1849622;77;20928;-87
2022/07/30 03:01:46;;;;;;;4.30;2.42;;;;;;;15.75;76.34;101180.42;1849509;77;20948;-87
2022/07/30 03:04:13;;;;;;;5.80;3.02;;;;;;;15.78;76.43;101182.83;1844726;75;21869;-88
2022/07/30 03:06:41;;;;;;;8.08;3.10;;;;;;;15.79;76.34;101178.41;1835284;77;20863;-87
2022/07/30 03:09:08;;;;;;;12.90;3.30;;;;;;;15.81;76.28;101183.08;1836438;77;20946;-86
2022/07/30 03:11:36;;;;;;;13.38;3.75;;;;;;;15.82;76.37;101180.82;1837990;78;20950;-86
2022/07/30 03:14:06;;;;;;;9.85;3.05;;;;;;;15.83;76.16;101185.14;1835183;77;20950;-86
2022/07/30 03:16:37;;;;;;;3.92;2.83;;;;;;;15.83;76.16;101175.87;1835071;76;21032;-87
2022/07/30 03:19:08;;;;;;;8.53;3.08;;;;;;;15.84;76.20;101177.59;1835008;77;20867;-87
2022/07/30 03:21:36;;;;;;;5.28;2.50;;;;;;;15.85;76.23;101180.58;1835440;77;20978;-88
2022/07/30 03:24:05;;;;;;;13.75;3.58;;;;;;;15.86;76.21;101183.61;1835028;77;20919;-87
2022/07/30 03:26:32;;;;;;;7.50;3.58;;;;;;;15.88;76.14;101185.67;1835368;76;20891;-85
2022/07/30 03:28:59;;;;;;;7.50;3.00;;;;;;;15.91;75.92;101186.75;1807416;78;21232;-86
2022/07/30 03:31:27;;;;;;;5.03;2.95;;;;;;;15.97;75.92;101185.47;1835035;77;21442;-86
2022/07/30 03:33:54;;;;;;;11.03;3.27;;;;;;;16.02;75.82;101190.77;1834976;77;21495;-87
2022/07/30 03:36:23;;;;;;;7.17;2.77;;;;;;;16.10;75.82;101190.23;1837645;77;20903;-85
2022/07/30 03:38:50;;;;;;;5.90;2.92;;;;;;;16.17;75.79;101179.55;1836695;76;20891;-85
2022/07/30 03:41:18;;;;;;;4.78;2.92;;;;;;;16.25;75.82;101181.59;1808440;77;20987;-85
2022/07/30 03:43:47;;;;;;;6.22;2.58;;;;;;;16.32;75.81;101183.69;1835122;78;20932;-86
2022/07/30 03:46:14;;;;;;;19.42;2.85;;;;;;;16.37;75.95;101174.91;1834971;77;20823;-86
2022/07/30 03:48:43;;;;;;;7.90;2.50;;;;;;;16.46;76.01;101183.96;1834980;77;20985;-87
2022/07/30 03:51:10;;;;;;;5.25;2.50;;;;;;;16.54;76.05;101187.34;1835215;77;20910;-86
2022/07/30 03:53:40;;;;;;;20.52;6.90;;;;;;;16.62;76.01;101184.95;1835813;76;21156;-87
2022/07/30 03:56:13;;;;;;;20.70;4.33;;;;;;;16.69;76.19;101184.01;1818676;78;20863;-87
2022/07/30 03:58:45;;;;;;;7.95;2.30;;;;;;;16.77;76.13;101177.16;1832838;77;21418;-87
2022/07/30 04:01:11;;;;;;;6.42;2.75;;;;;;;16.86;76.13;101173.48;1835218;78;20894;-87
2022/07/30 04:03:38;;;;;;;3.17;1.92;;;;;;;16.94;76.11;101175.90;1835292;77;20946;-87
2022/07/30 04:06:07;;;;;;;5.12;3.12;;;;;;;17.02;76.12;101176.61;1835797;77;21201;-86
2022/07/30 04:08:34;;;;;;;7.03;2.55;;;;;;;17.12;76.05;101175.39;1837178;78;20923;-85
2022/07/30 04:11:02;;;;;;;3.33;2.22;;;;;;;17.19;76.04;101172.64;1835666;78;20859;-87
2022/07/30 04:13:46;;;;;;;13.80;2.45;;;;;;;17.29;76.09;101168.77;1832390;76;20891;-86
2022/07/30 04:16:21;;;;;;;7.47;2.45;;;;;;;17.38;76.08;101168.86;1835390;76;20914;-87
2022/07/30 04:18:52;;;;;;;5.12;3.27;;;;;;;17.49;75.94;101168.50;1835347;76;20832;-88
2022/07/30 04:21:20;;;;;;;6.67;2.37;;;;;;;17.59;75.92;101167.64;1835136;77;21332;-86
2022/07/30 04:23:47;;;;;;;5.50;1.75;;;;;;;17.71;75.83;101165.79;1835013;78;20895;-86
2022/07/30 04:26:13;;;;;;;9.93;3.00;;;;;;;17.85;75.85;101167.34;1807246;78;20867;-86
2022/07/30 04:28:40;;;;;;;6.72;2.20;;;;;;;18.01;75.73;101162.47;1807426;78;20898;-86
2022/07/30 04:31:07;;;;;;;7.33;1.98;;;;;;;18.25;75.56;101168.02;1835147;76;21135;-86
2022/07/30 04:33:35;;;;;;;9.20;3.52;;;;;;;18.57;75.27;101166.64;1835306;78;20946;-87
2022/07/30 04:36:07;;;;;;;6.92;2.72;;;;;;;19.02;74.39;101163.67;1834565;77;20863;-86
2022/07/30 04:38:37;;;;;;;;;;;;;;;19.62;72.63;101170.86;1837484;77;20879;-88
2022/07/30 04:41:04;;;;;;;10.82;2.98;;;;;;;20.33;70.40;101167.97;1835216;77;20097;-87
2022/07/30 04:43:33;;;;;;;6.42;2.47;;;;;;;21.09;68.12;101165.75;1834919;76;21553;-86
2022/07/30 04:46:01;;;;;;;5.17;2.52;;;;;;;21.87;64.57;101166.14;1835248;77;21337;-88
2022/07/30 04:48:29;;;;;;;10.00;2.75;;;;;;;22.67;60.26;101170.64;1835469;77;20879;-86
2022/07/30 04:51:00;;;;;;;6.80;1.80;;;;;;;23.42;55.51;101166.01;1835265;77;21430;-88
2022/07/30 04:53:28;;;;;;;5.90;2.08;;;;;;;24.11;52.65;101170.16;1808080;78;20910;-86
2022/07/30 04:55:57;;;;;;;5.75;1.98;;;;;;;24.81;50.72;101168.75;1808081;78;21929;-88
2022/07/30 04:58:27;;;;;;;3.80;2.30;;;;;;;25.41;48.78;101158.83;1835584;77;20879;-87
2022/07/30 05:00:54;;;;;;;3.08;1.65;;;;;;;25.91;45.07;101167.42;1835283;77;20902;-86
2022/07/30 05:03:23;;;;;;;7.95;2.05;;;;;;;26.30;44.66;101161.03;1835750;77;20882;-84
2022/07/30 05:05:52;;;;;;;7.12;1.87;;;;;;;26.66;43.98;101166.61;1849196;76;20901;-86
2022/07/30 05:08:18;;;;;;;8.53;2.77;;;;;;;27.09;42.64;101159.22;1850365;77;21108;-85
2022/07/30 05:10:46;;;;;;;5.17;2.08;;;;;;;27.55;41.74;101160.31;1849802;77;20889;-86
2022/07/30 05:13:13;;;;;;;8.13;1.90;;;;;;;28.04;41.39;101174.41;1849768;77;20948;-86
2022/07/30 05:15:43;;;;;;;7.75;2.15;;;;;;;28.44;39.22;101167.98;1850155;77;21540;-87
2022/07/30 05:18:12;;;;;;;7.58;2.75;;;;;;;28.83;39.14;101168.46;1849805;77;20862;-88
2022/07/30 05:20:43;;;;;;;5.45;1.77;;;;;;;29.26;38.14;101166.42;1849590;77;21708;-86
2022/07/30 05:23:14;;;;;;;4.22;2.58;;;;;;;29.68;38.33;101163.14;1847921;76;20823;-87
2022/07/30 05:25:43;;;;;;;7.55;2.33;;;;;;;30.09;37.21;101168.89;1849493;77;20877;-84
2022/07/30 05:28:16;;;;;;;4.25;2.40;;;;;;;30.43;36.50;101166.20;1849614;77;20909;-85
2022/07/30 05:30:43;;;;;;;5.37;2.52;;;;;;;30.70;35.85;101161.57;1849699;77;20885;-88
2022/07/30 05:33:12;;;;;;;6.28;2.27;;;;;;;30.95;36.16;101162.58;1823748;77;21257;-85
2022/07/30 05:35:40;;;;;;;6.40;2.08;;;;;;;31.18;35.25;101159.34;1849463;77;20826;-85
2022/07/30 05:38:07;;;;;;;6.03;2.27;;;;;;;31.37;34.58;101159.45;1849402;77;21397;-87
2022/07/30 05:40:35;;;;;;;7.45;2.40;;;;;;;31.62;34.54;101151.94;1848811;77;20933;-87
2022/07/30 05:43:21;;;;;;;13.45;2.05;;;;;;;31.80;34.05;101147.44;1850959;77;20849;-86
2022/07/30 05:45:53;;;;;;;3.60;2.58;;;;;;;32.03;33.45;101151.47;1852104;77;21241;-85
2022/07/30 05:48:19;;;;;;;4.83;2.40;;;;;;;32.18;33.03;101153.32;1852503;77;20888;-83
2022/07/30 05:50:46;;;;;;;7.78;2.47;;;;;;;32.39;32.62;101153.95;1851562;77;20874;-88
2022/07/30 05:53:14;;;;;;;7.78;1.75;;;;;;;32.61;32.47;101158.47;1849624;77;20893;-88
2022/07/30 05:55:56;;;;;;;13.95;12.70;;;;;;;32.69;33.06;101155.47;1800379;77;21022;-87
2022/07/30 05:58:42;;;;;;;6.50;2.40;;;;;;;32.80;32.53;101153.34;1850186;76;21151;-86
2022/07/30 06:01:11;;;;;;;7.42;2.17;;;;;;;32.91;32.56;101150.94;1850695;77;20862;-86
2022/07/30 06:03:37;;;;;;;5.40;1.70;;;;;;;33.08;32.66;101144.38;1852267;76;20972;-86
2022/07/30 06:06:20;;;;;;;6.65;4.17;;;;;;;33.28;32.16;101146.83;1834204;75;20950;-87
2022/07/30 06:08:49;;;;;;;7.47;2.17;;;;;;;33.45;31.79;101147.30;1835575;76;20954;-86
2022/07/30 06:11:17;;;;;;;5.70;1.90;;;;;;;33.60;31.88;101146.09;1835209;77;21328;-87
2022/07/30 06:13:44;;;;;;;6.15;1.85;;;;;;;33.82;31.64;101141.77;1835266;77;20871;-87
2022/07/30 06:16:11;;;;;;;5.12;1.85;;;;;;;34.06;31.26;101140.41;1835180;76;20875;-86
2022/07/30 06:18:39;;;;;;;3.67;1.82;;;;;;;34.26;30.47;101134.14;1835771;76;20879;-86
2022/07/30 06:21:08;;;;;;;6.08;2.15;;;;;;;34.42;29.90;101131.22;1835320;76;20903;-84
2022/07/30 06:23:45;;;;;;;6.47;1.82;;;;;;;34.52;29.45;101131.97;1834352;77;21500;-85
2022/07/30 06:26:19;;;;;;;4.03;1.70;;;;;;;34.61;29.12;101127.80;1834903;77;20902;-85
2022/07/30 06:28:47;;;;;;;3.40;1.47;;;;;;;34.82;28.67;101123.66;1834905;78;21348;-87
2022/07/30 06:31:16;;;;;;;4.90;2.50;;;;;;;35.05;28.55;101120.02;1833982;77;21012;-84
2022/07/30 06:33:43;;;;;;;4.33;1.80;;;;;;;35.34;27.78;101120.58;1833683;77;20914;-85
2022/07/30 06:36:10;;;;;;;7.12;2.08;;;;;;;35.59;27.55;101112.83;1834956;77;21929;-84
2022/07/30 06:38:41;;;;;;;6.62;1.92;;;;;;;35.76;27.47;101107.97;1833175;77;20938;-84
2022/07/30 06:41:09;;;;;;;4.58;2.00;;;;;;;35.88;27.06;101110.05;1833973;76;21479;-84
2022/07/30 06:43:38;;;;;;;2.27;1.40;;;;;;;35.91;27.29;101108.21;1833046;77;20989;-84
2022/07/30 06:46:19;;;;;;;7.95;1.80;;;;;;;36.04;26.74;101111.11;1833285;77;21506;-85
2022/07/30 06:48:48;;;;;;;4.78;2.08;;;;;;;36.13;25.89;101108.81;1833687;77;21839;-87
2022/07/30 06:51:15;;;;;;;5.10;1.62;;;;;;;36.28;25.10;101109.86;1833700;77;20950;-83
2022/07/30 06:53:44;;;;;;;1.90;1.20;;;;;;;36.46;25.42;101116.11;1833944;76;20934;-84
2022/07/30 06:56:12;;;;;;;2.17;1.07;;;;;;;36.67;24.77;101113.14;1833905;77;21584;-83
2022/07/30 06:58:40;;;;;;;4.28;1.40;;;;;;;36.86;24.40;101105.42;1834278;78;20895;-83
2022/07/30 07:01:16;;;;;;;5.10;1.40;;;;;;;36.89;24.07;101109.03;1817681;77;20812;-84
2022/07/30 07:03:43;;;;;;;7.62;1.82;;;;;;;36.98;24.16;101105.31;1834793;77;20871;-84
2022/07/30 07:06:10;;;;;;;5.12;0.85;;;;;;;37.14;23.92;101104.41;1851323;77;20895;-82
2022/07/30 07:08:37;;;;;;;3.98;1.67;;;;;;;37.33;23.91;101111.17;1860125;77;20911;-83
2022/07/30 07:11:05;;;;;;;4.17;1.30;;;;;;;37.39;23.12;101114.77;1860040;76;21422;-84
2022/07/30 07:13:35;;;;;;;3.17;0.75;;;;;;;37.34;23.03;101107.33;1859928;76;20955;-83
2022/07/30 07:16:04;;;;;;;4.00;0.88;;;;;;;37.42;22.73;101111.53;1859979;76;20875;-83
2022/07/30 07:18:32;;;;;;;4.15;1.10;;;;;;;37.52;22.78;101103.94;1860091;77;21365;-84
2022/07/30 07:21:01;;;;;;;5.45;1.15;;;;;;;37.61;22.57;101100.22;1859951;77;20962;-84
2022/07/30 07:23:29;;;;;;;3.27;0.78;;;;;;;37.69;22.13;101095.63;1860057;77;20962;-84
2022/07/30 07:25:59;;;;;;;4.75;1.25;;;;;;;37.84;23.31;101090.27;1860185;77;21917;-85
2022/07/30 07:28:26;;;;;;;8.13;1.45;;;;;;;38.04;22.95;101090.13;1860041;77;20927;-84
2022/07/30 07:30:53;;;;;;;3.02;0.82;;;;;;;38.18;22.58;101086.38;1859965;77;20895;-84
2022/07/30 07:33:20;;;;;;;8.00;1.17;;;;;;;38.34;22.14;101094.42;1860092;77;20926;-84
2022/07/30 07:35:46;;;;;;;3.72;0.90;;;;;;;38.47;22.21;101090.93;1860025;76;20868;-84
2022/07/30 07:38:13;;;;;;;4.10;1.45;;;;;;;38.56;21.71;101090.16;1860357;77;21124;-84
2022/07/30 07:40:40;;;;;;;4.45;1.30;;;;;;;38.68;21.67;101085.00;1860044;77;21344;-84
2022/07/30 07:43:08;;;;;;;2.67;1.22;;;;;;;38.68;21.69;101088.55;1860429;76;21407;-84
2022/07/30 07:45:36;;;;;;;2.85;0.70;;;;;;;38.81;21.43;101083.67;1860241;76;20903;-84
2022/07/30 07:48:05;;;;;;;5.92;0.98;;;;;;;38.90;20.43;101083.41;1860129;77;20931;-83
2022/07/30 07:50:46;;;;;;;3.50;0.88;;;;;;;38.90;20.29;101080.12;1832591;77;21249;-84
2022/07/30 07:53:18;;;;;;;11.38;1.22;;;;;;;38.87;20.97;101086.70;1860022;77;20883;-83
2022/07/30 07:55:45;;;;;;;3.72;0.80;;;;;;;38.95;21.02;101079.33;1860096;77;20958;-83
2022/07/30 07:58:14;;;;;;;2.58;0.75;;;;;;;39.07;21.11;101082.66;1860108;76;21392;-82
2022/07/30 08:00:41;;;;;;;4.37;1.37;;;;;;;39.16;21.11;101082.39;1860140;76;20954;-84
2022/07/30 08:03:08;;;;;;;1.32;0.53;;;;;;;39.19;20.57;101087.87;1860403;77;21087;-83
2022/07/30 08:05:36;;;;;;;6.30;0.98;;;;;;;39.16;20.37;101080.20;1860193;76;20915;-84
2022/07/30 08:08:05;;;;;;;5.12;1.30;;;;;;;39.06;20.88;101086.48;1859471;77;20890;-83
2022/07/30 08:10:50;;;;;;;3.17;0.90;;;;;;;39.13;20.97;101085.70;1860090;77;20871;-83
2022/07/30 08:13:36;;;;;;;5.10;0.80;;;;;;;39.13;20.47;101077.47;1860033;77;20938;-82
2022/07/30 08:16:23;;;;;;;4.62;0.93;;;;;;;39.24;20.81;101080.20;1859900;77;20895;-84
2022/07/30 08:18:49;;;;;;;2.77;0.68;;;;;;;39.34;20.09;101067.31;1860000;76;21420;-82
2022/07/30 08:21:25;;;;;;;2.52;1.00;;;;;;;39.37;20.68;101074.17;1859645;77;20962;-84
2022/07/30 08:23:53;;;;;;;3.55;0.62;;;;;;;39.34;20.33;101063.75;1857001;77;20840;-84
2022/07/30 08:26:19;;;;;;;2.85;0.60;;;;;;;39.35;19.53;101060.74;1860205;76;20915;-84
2022/07/30 08:28:47;;;;;;;11.97;10.45;;;;;;;39.40;19.25;101068.70;1860274;76;20915;-85
2022/07/30 08:31:14;;;;;;;13.90;12.68;;;;;;;39.28;18.93;101063.47;1860174;76;20848;-85
2022/07/30 08:33:42;;;;;;;4.75;2.00;;;;;;;39.17;19.41;101060.70;1860289;77;20915;-83
2022/07/30 08:36:10;;;;;;;4.78;3.40;;;;;;;39.20;19.60;101057.14;1860121;77;20879;-82
2022/07/30 08:38:38;;;;;;;3.37;1.17;;;;;;;39.30;19.54;101053.86;1860244;76;21466;-83
2022/07/30 08:41:04;;;;;;;2.42;0.70;;;;;;;39.38;19.30;101053.91;1860237;77;21849;-84
2022/07/30 08:43:31;;;;;;;7.08;1.30;;;;;;;39.40;19.40;101055.83;1860135;77;21453;-84
2022/07/30 08:45:58;;;;;;;2.30;1.20;;;;;;;39.44;19.43;101054.72;1857329;76;20911;-84
2022/07/30 08:48:27;;;;;;;2.62;1.12;;;;;;;39.48;19.16;101055.26;1859344;77;20884;-84
2022/07/30 08:50:55;;;;;;;3.17;0.90;;;;;;;39.53;19.11;101047.56;1860194;76;20970;-83
2022/07/30 08:53:34;;;;;;;8.28;3.55;;;;;;;39.52;18.65;101048.13;1860244;76;22135;-83
2022/07/30 08:56:03;;;;;;;2.90;1.12;;;;;;;39.47;19.06;101051.44;1860239;77;20867;-83
2022/07/30 08:58:35;;;;;;;1.42;0.75;;;;;;;39.42;19.09;101046.74;1860291;77;20844;-82
2022/07/30 09:01:03;;;;;;;1.20;0.82;;;;;;;39.40;18.81;101037.14;1860167;77;20938;-82
2022/07/30 09:03:32;;;;;;;3.33;2.47;;;;;;;39.37;19.21;101035.19;1860235;77;20832;-82
2022/07/30 09:06:03;;;;;;;4.60;2.72;;;;;;;39.26;18.94;101035.48;1860108;77;21370;-81
2022/07/30 09:08:29;;;;;;;5.50;3.37;;;;;;;39.06;19.34;101034.36;1860136;77;20919;-82
2022/07/30 09:10:58;;;;;;;3.12;1.22;;;;;;;38.91;18.90;101038.42;1860148;76;21404;-82
2022/07/30 09:13:29;;;;;;;4.55;3.72;;;;;;;38.77;19.23;101033.46;1861850;77;20926;-80
2022/07/30 09:15:58;;;;;;;6.53;2.33;;;;;;;38.87;19.22;101038.72;1862001;76;20911;-82
2022/07/30 09:18:32;;;;;;;4.05;1.32;;;;;;;38.87;18.80;101029.12;1858110;76;21965;-85
2022/07/30 09:21:01;;;;;;;2.55;1.62;;;;;;;38.71;18.88;101030.45;1860105;77;20852;-84
2022/07/30 09:23:28;;;;;;;4.78;1.60;;;;;;;38.54;18.97;101023.82;1860346;77;20981;-83
2022/07/30 09:26:14;;;;;;;2.40;1.55;;;;;;;38.45;19.56;101030.08;1860289;77;20881;-83
2022/07/30 09:29:25;;;;;;;2.50;0.90;;;;;;;38.58;19.48;101026.01;1860233;77;20982;-83
2022/07/30 09:32:12;;;;;;;0.57;0.57;;;;;;;38.72;19.53;101024.42;1860129;77;21289;-84
2022/07/30 09:35:12;;;;;;;3.77;0.85;;;;;;;38.93;19.33;101034.38;1860051;76;21545;-85
2022/07/30 09:37:59;;;;;;;4.15;1.02;;;;;;;39.14;19.24;101030.27;1821141;77;20855;-82
2022/07/30 09:40:50;;;;;;;2.37;0.60;;;;;;;39.30;19.20;101021.48;1859940;77;20919;-83
2022/07/30 09:43:49;;;;;;;4.12;1.30;;;;;;;39.46;18.90;101025.07;1860331;76;20943;-84
2022/07/30 09:46:46;;;;;;;5.00;1.40;;;;;;;39.45;18.89;101026.19;1812613;77;21274;-83
2022/07/30 09:49:18;;;;;;;3.62;0.70;;;;;;;39.30;18.94;101020.92;1860308;76;20910;-83
2022/07/30 09:51:45;;;;;;;6.15;1.30;;;;;;;38.99;19.01;101024.21;1860449;77;21356;-82
2022/07/30 09:54:13;;;;;;;3.37;1.27;;;;;;;38.45;19.82;101027.33;1860903;77;20907;-84
2022/07/30 09:56:40;;;;;;;4.20;0.68;;;;;;;38.10;19.86;101026.90;1860750;77;20864;-82
2022/07/30 09:59:27;;;;;;;1.92;1.00;;;;;;;37.86;19.84;101028.38;1860344;77;20919;-84
2022/07/30 10:01:55;;;;;;;3.02;1.42;;;;;;;37.70;20.14;101020.06;1859892;76;20918;-83
2022/07/30 10:04:31;;;;;;;7.05;0.98;;;;;;;37.57;20.27;101019.16;1859328;77;20899;-84
2022/07/30 10:07:00;;;;;;;5.50;0.90;;;;;;;37.46;20.46;101019.59;1852350;77;20913;-84
2022/07/30 10:09:31;;;;;;;3.08;0.90;;;;;;;37.32;20.79;101016.48;1848097;76;20940;-84
2022/07/30 10:12:01;;;;;;;3.45;1.10;;;;;;;37.34;20.91;101016.23;1849399;77;21177;-83
2022/07/30 10:14:35;;;;;;;1.05;0.80;;;;;;;37.38;20.57;101013.25;1849211;76;20920;-85
2022/07/30 10:17:04;;;;;;;3.62;0.78;;;;;;;37.43;20.84;101012.47;1849344;76;20869;-83
2022/07/30 10:19:35;;;;;;;3.40;0.75;;;;;;;37.43;20.40;101009.73;1849560;77;20948;-87
2022/07/30 10:22:21;;;;;;;2.42;0.62;;;;;;;37.36;20.72;101013.24;1849540;77;20908;-84
2022/07/30 10:25:08;;;;;;;5.12;1.42;;;;;;;37.33;20.79;101010.45;1849376;77;21240;-85
2022/07/30 10:27:42;;;;;;;8.95;0.80;;;;;;;37.27;20.88;101009.61;1835530;76;20862;-83
2022/07/30 10:30:11;;;;;;;4.58;1.20;;;;;;;37.18;20.53;101018.02;1847127;77;20886;-85
2022/07/30 10:32:40;;;;;;;3.77;0.93;;;;;;;36.96;20.41;101020.79;1849354;77;20936;-84
2022/07/30 10:35:07;;;;;;;3.80;1.10;;;;;;;36.66;20.37;101020.77;1849580;77;20897;-83
2022/07/30 10:37:35;;;;;;;0.50;0.50;;;;;;;36.46;20.53;101016.38;1849207;77;21213;-83
2022/07/30 10:40:13;;;;;;;3.62;1.07;;;;;;;36.34;20.70;101008.88;1849302;77;20881;-85
2022/07/30 10:43:31;;;;;;;4.03;0.80;;;;;;;36.37;20.82;101010.54;1849520;77;20877;-85
2022/07/30 10:46:22;;;;;;;4.80;1.30;;;;;;;36.52;21.18;101017.55;1849347;77;20885;-85
2022/07/30 10:48:49;;;;;;;5.47;1.00;;;;;;;36.63;21.50;101012.25;1849439;77;21382;-84
2022/07/30 10:51:17;;;;;;;2.67;1.65;;;;;;;36.69;21.63;101010.67;1849880;77;20944;-85
2022/07/30 10:53:45;;;;;;;19.65;18.00;;;;;;;36.82;21.84;101008.60;1851497;77;20905;-85
2022/07/30 10:56:21;;;;;;;5.35;1.70;;;;;;;36.95;21.47;101007.36;1849394;77;20999;-86
2022/07/30 10:59:06;;;;;;;7.80;2.37;;;;;;;36.87;20.97;101012.77;1848635;77;21471;-85
2022/07/30 11:01:59;;;;;;;1.77;1.00;;;;;;;36.62;21.10;101015.53;1849386;76;20870;-87
2022/07/30 11:04:28;;;;;;;3.42;0.85;;;;;;;36.44;21.29;101008.46;1849393;77;20964;-85
2022/07/30 11:07:28;;;;;;;4.10;1.30;;;;;;;36.40;21.48;101000.48;1855209;75;20982;-87
2022/07/30 11:09:59;;;;;;;2.58;1.07;;;;;;;36.42;21.54;101002.94;1860398;77;20966;-86
2022/07/30 11:12:47;;;;;;;2.20;1.10;;;;;;;36.50;21.55;101003.31;1860065;76;20946;-87
2022/07/30 11:15:14;;;;;;;6.03;1.35;;;;;;;36.43;21.59;101001.88;1860229;77;20883;-85
2022/07/30 11:18:02;;;;;;;3.08;0.70;;;;;;;36.39;21.94;101005.64;1860172;76;20899;-86
2022/07/30 11:20:30;;;;;;;3.85;1.27;;;;;;;36.29;21.85;101002.27;1859975;77;21504;-85
2022/07/30 11:23:20;;;;;;;4.58;1.10;;;;;;;36.25;21.77;101003.03;1860181;77;21356;-86
2022/07/30 11:25:47;;;;;;;1.87;1.37;;;;;;;36.14;22.01;101009.45;1857695;77;20934;-86
2022/07/30 11:28:44;;;;;;;2.77;0.93;;;;;;;36.02;21.57;101008.99;1860352;77;20946;-85
2022/07/30 11:31:29;;;;;;;5.35;3.90;;;;;;;35.89;21.23;101008.81;1860153;76;21773;-87
2022/07/30 11:34:22;;;;;;;5.45;2.98;;;;;;;35.81;21.84;101011.14;1860097;77;21455;-84
2022/07/30 11:37:16;;;;;;;4.67;2.05;;;;;;;35.78;21.74;101004.28;1859906;77;20875;-84
2022/07/30 11:39:57;;;;;;;11.80;7.85;;;;;;;35.73;21.78;101000.13;1859909;77;20868;-85
2022/07/30 11:42:29;;;;;;;9.30;8.23;;;;;;;35.68;21.83;100994.57;1846080;76;21451;-85
2022/07/30 11:45:19;;;;;;;15.85;10.53;;;;;;;35.50;22.16;100999.19;1860238;77;21773;-86
2022/07/30 11:47:51;;;;;;;3.83;2.25;;;;;;;35.30;22.08;100997.50;1822957;78;20947;-84
2022/07/30 11:50:25;;;;;;;4.10;0.87;;;;;;;34.96;22.16;100990.63;1824801;78;21002;-85